sensor_id;sensor_type;location;lat;lon;timestamp;P1;durP1;ratioP1;P2;durP2;ratioP2
71910;SDS011;59783;52.232;5.170;2023-04-28T00:01:31;25.87;;;22.50;;
71910;SDS011;59783;52.232;5.170;2023-04-28T00:03:56;25.07;;;22.20;;
71910;SDS011;59783;52.232;5.170;2023-04-28T00:06:22;26.48;;;23.20;;
71910;SDS011;59783;52.232;5.170;2023-04-28T00:08:47;26.55;;;23.30;;
71910;SDS011;59783;52.232;5.170;2023-04-28T00:11:12;23.90;;;21.30;;
71910;SDS011;59783;52.232;5.170;2023-04-28T00:13:38;29.93;;;25.60;;
71910;SDS011;59783;52.232;5.170;2023-04-28T00:16:03;28.40;;;22.63;;
71910;SDS011;59783;52.232;5.170;2023-04-28T00:18:28;25.13;;;22.15;;
71910;SDS011;59783;52.232;5.170;2023-04-28T00:20:54;27.67;;;24.55;;
71910;SDS011;59783;52.232;5.170;2023-04-28T00:23:19;25.20;;;22.33;;
71910;SDS011;59783;52.232;5.170;2023-04-28T00:25:49;26.98;;;23.77;;
71910;SDS011;59783;52.232;5.170;2023-04-28T00:28:14;25.85;;;23.15;;
71910;SDS011;59783;52.232;5.170;2023-04-28T00:30:39;24.70;;;21.80;;
71910;SDS011;59783;52.232;5.170;2023-04-28T00:33:04;27.17;;;23.83;;
71910;SDS011;59783;52.232;5.170;2023-04-28T00:35:30;24.60;;;22.00;;
71910;SDS011;59783;52.232;5.170;2023-04-28T00:37:55;27.58;;;22.27;;
71910;SDS011;59783;52.232;5.170;2023-04-28T00:40:20;25.30;;;22.70;;
71910;SDS011;59783;52.232;5.170;2023-04-28T00:42:46;26.83;;;24.10;;
71910;SDS011;59783;52.232;5.170;2023-04-28T00:45:11;23.53;;;21.03;;
71910;SDS011;59783;52.232;5.170;2023-04-28T00:47:36;25.13;;;22.43;;
71910;SDS011;59783;52.232;5.170;2023-04-28T00:50:02;25.33;;;22.63;;
71910;SDS011;59783;52.232;5.170;2023-04-28T00:52:28;28.45;;;25.58;;
71910;SDS011;59783;52.232;5.170;2023-04-28T00:54:53;27.25;;;24.38;;
71910;SDS011;59783;52.232;5.170;2023-04-28T00:57:18;26.08;;;22.35;;
71910;SDS011;59783;52.232;5.170;2023-04-28T00:59:44;27.67;;;23.27;;
71910;SDS011;59783;52.232;5.170;2023-04-28T01:02:09;26.70;;;24.00;;
71910;SDS011;59783;52.232;5.170;2023-04-28T01:04:41;27.15;;;23.35;;
71910;SDS011;59783;52.232;5.170;2023-04-28T01:07:06;23.92;;;21.40;;
71910;SDS011;59783;52.232;5.170;2023-04-28T01:09:31;25.00;;;22.33;;
71910;SDS011;59783;52.232;5.170;2023-04-28T01:11:56;26.20;;;21.83;;
71910;SDS011;59783;52.232;5.170;2023-04-28T01:14:22;25.52;;;22.17;;
71910;SDS011;59783;52.232;5.170;2023-04-28T01:16:47;24.17;;;21.67;;
71910;SDS011;59783;52.232;5.170;2023-04-28T01:19:18;29.90;;;27.00;;
71910;SDS011;59783;52.232;5.170;2023-04-28T01:21:45;25.52;;;22.77;;
71910;SDS011;59783;52.232;5.170;2023-04-28T01:24:10;26.07;;;23.23;;
71910;SDS011;59783;52.232;5.170;2023-04-28T01:26:35;24.90;;;22.30;;
71910;SDS011;59783;52.232;5.170;2023-04-28T01:29:01;26.37;;;23.57;;
71910;SDS011;59783;52.232;5.170;2023-04-28T01:31:26;23.63;;;21.23;;
71910;SDS011;59783;52.232;5.170;2023-04-28T01:33:51;25.17;;;22.40;;
71910;SDS011;59783;52.232;5.170;2023-04-28T01:36:16;24.23;;;21.63;;
71910;SDS011;59783;52.232;5.170;2023-04-28T01:38:41;23.87;;;21.27;;
71910;SDS011;59783;52.232;5.170;2023-04-28T01:41:06;25.40;;;22.70;;
71910;SDS011;59783;52.232;5.170;2023-04-28T01:43:32;25.10;;;21.77;;
71910;SDS011;59783;52.232;5.170;2023-04-28T01:45:57;25.48;;;22.75;;
71910;SDS011;59783;52.232;5.170;2023-04-28T01:48:22;24.10;;;21.50;;
71910;SDS011;59783;52.232;5.170;2023-04-28T01:50:47;26.00;;;22.20;;
71910;SDS011;59783;52.232;5.170;2023-04-28T01:53:12;24.90;;;22.13;;
71910;SDS011;59783;52.232;5.170;2023-04-28T01:55:38;26.85;;;24.10;;
71910;SDS011;59783;52.232;5.170;2023-04-28T01:58:03;26.52;;;23.83;;
71910;SDS011;59783;52.232;5.170;2023-04-28T02:00:28;24.00;;;21.60;;
71910;SDS011;59783;52.232;5.170;2023-04-28T02:02:53;25.87;;;22.30;;
71910;SDS011;59783;52.232;5.170;2023-04-28T02:05:19;24.80;;;22.20;;
71910;SDS011;59783;52.232;5.170;2023-04-28T02:07:44;27.73;;;23.20;;
71910;SDS011;59783;52.232;5.170;2023-04-28T02:10:10;25.17;;;22.30;;
71910;SDS011;59783;52.232;5.170;2023-04-28T02:12:35;26.53;;;23.80;;
71910;SDS011;59783;52.232;5.170;2023-04-28T02:15:00;24.20;;;21.60;;
71910;SDS011;59783;52.232;5.170;2023-04-28T02:17:25;25.77;;;22.90;;
71910;SDS011;59783;52.232;5.170;2023-04-28T02:19:54;25.10;;;21.15;;
71910;SDS011;59783;52.232;5.170;2023-04-28T02:22:20;31.10;;;22.45;;
71910;SDS011;59783;52.232;5.170;2023-04-28T02:24:45;27.00;;;22.60;;
71910;SDS011;59783;52.232;5.170;2023-04-28T02:27:10;26.87;;;22.23;;
71910;SDS011;59783;52.232;5.170;2023-04-28T02:29:36;24.65;;;22.02;;
71910;SDS011;59783;52.232;5.170;2023-04-28T02:32:01;25.23;;;22.73;;
71910;SDS011;59783;52.232;5.170;2023-04-28T02:34:27;25.55;;;22.80;;
71910;SDS011;59783;52.232;5.170;2023-04-28T02:36:52;30.87;;;27.83;;
71910;SDS011;59783;52.232;5.170;2023-04-28T02:39:18;25.98;;;22.58;;
71910;SDS011;59783;52.232;5.170;2023-04-28T02:41:45;26.23;;;23.42;;
71910;SDS011;59783;52.232;5.170;2023-04-28T02:44:11;26.90;;;24.07;;
71910;SDS011;59783;52.232;5.170;2023-04-28T02:46:36;26.07;;;22.50;;
71910;SDS011;59783;52.232;5.170;2023-04-28T02:49:01;25.77;;;23.15;;
71910;SDS011;59783;52.232;5.170;2023-04-28T02:51:26;26.03;;;23.23;;
71910;SDS011;59783;52.232;5.170;2023-04-28T02:53:52;26.65;;;23.83;;
71910;SDS011;59783;52.232;5.170;2023-04-28T02:56:17;25.45;;;22.73;;
71910;SDS011;59783;52.232;5.170;2023-04-28T02:58:42;24.93;;;22.27;;
71910;SDS011;59783;52.232;5.170;2023-04-28T03:01:08;26.55;;;23.13;;
71910;SDS011;59783;52.232;5.170;2023-04-28T03:03:33;24.05;;;21.40;;
71910;SDS011;59783;52.232;5.170;2023-04-28T03:05:58;25.87;;;23.17;;
71910;SDS011;59783;52.232;5.170;2023-04-28T03:08:26;24.97;;;22.27;;
71910;SDS011;59783;52.232;5.170;2023-04-28T03:10:51;25.58;;;22.98;;
71910;SDS011;59783;52.232;5.170;2023-04-28T03:13:16;26.03;;;23.33;;
71910;SDS011;59783;52.232;5.170;2023-04-28T03:15:41;24.77;;;22.17;;
71910;SDS011;59783;52.232;5.170;2023-04-28T03:18:06;25.97;;;23.37;;
71910;SDS011;59783;52.232;5.170;2023-04-28T03:20:32;30.73;;;27.80;;
71910;SDS011;59783;52.232;5.170;2023-04-28T03:22:57;25.15;;;22.55;;
71910;SDS011;59783;52.232;5.170;2023-04-28T03:25:22;25.57;;;22.17;;
71910;SDS011;59783;52.232;5.170;2023-04-28T03:27:47;26.47;;;23.77;;
71910;SDS011;59783;52.232;5.170;2023-04-28T03:30:12;27.80;;;23.95;;
71910;SDS011;59783;52.232;5.170;2023-04-28T03:32:38;25.40;;;21.77;;
71910;SDS011;59783;52.232;5.170;2023-04-28T03:35:03;27.25;;;21.63;;
71910;SDS011;59783;52.232;5.170;2023-04-28T03:37:28;27.80;;;24.67;;
71910;SDS011;59783;52.232;5.170;2023-04-28T03:39:53;27.77;;;24.80;;
71910;SDS011;59783;52.232;5.170;2023-04-28T03:42:18;27.20;;;23.07;;
71910;SDS011;59783;52.232;5.170;2023-04-28T03:44:43;27.67;;;24.67;;
71910;SDS011;59783;52.232;5.170;2023-04-28T03:47:09;25.65;;;22.67;;
71910;SDS011;59783;52.232;5.170;2023-04-28T03:49:34;26.40;;;21.90;;
71910;SDS011;59783;52.232;5.170;2023-04-28T03:51:59;25.77;;;23.02;;
71910;SDS011;59783;52.232;5.170;2023-04-28T03:54:25;25.83;;;22.85;;
71910;SDS011;59783;52.232;5.170;2023-04-28T03:56:50;35.25;;;23.73;;
71910;SDS011;59783;52.232;5.170;2023-04-28T03:59:15;25.33;;;22.08;;
71910;SDS011;59783;52.232;5.170;2023-04-28T04:01:41;27.37;;;24.47;;
71910;SDS011;59783;52.232;5.170;2023-04-28T04:04:06;25.13;;;22.53;;
71910;SDS011;59783;52.232;5.170;2023-04-28T04:06:31;26.27;;;23.50;;
71910;SDS011;59783;52.232;5.170;2023-04-28T04:08:56;26.77;;;23.67;;
71910;SDS011;59783;52.232;5.170;2023-04-28T04:11:21;25.00;;;22.30;;
71910;SDS011;59783;52.232;5.170;2023-04-28T04:13:47;27.23;;;24.23;;
71910;SDS011;59783;52.232;5.170;2023-04-28T04:16:12;27.42;;;23.40;;
71910;SDS011;59783;52.232;5.170;2023-04-28T04:18:39;28.27;;;25.27;;
71910;SDS011;59783;52.232;5.170;2023-04-28T04:21:05;31.00;;;25.55;;
71910;SDS011;59783;52.232;5.170;2023-04-28T04:23:30;29.13;;;24.97;;
71910;SDS011;59783;52.232;5.170;2023-04-28T04:25:55;28.33;;;25.33;;
71910;SDS011;59783;52.232;5.170;2023-04-28T04:28:20;26.80;;;23.65;;
71910;SDS011;59783;52.232;5.170;2023-04-28T04:30:45;27.20;;;24.33;;
71910;SDS011;59783;52.232;5.170;2023-04-28T04:33:11;26.35;;;23.45;;
71910;SDS011;59783;52.232;5.170;2023-04-28T04:35:36;29.83;;;26.63;;
71910;SDS011;59783;52.232;5.170;2023-04-28T04:38:02;28.92;;;24.27;;
71910;SDS011;59783;52.232;5.170;2023-04-28T04:40:27;30.58;;;24.58;;
71910;SDS011;59783;52.232;5.170;2023-04-28T04:42:52;26.60;;;23.75;;
71910;SDS011;59783;52.232;5.170;2023-04-28T04:45:17;28.33;;;25.37;;
71910;SDS011;59783;52.232;5.170;2023-04-28T04:47:43;29.67;;;26.30;;
71910;SDS011;59783;52.232;5.170;2023-04-28T04:50:09;25.08;;;22.35;;
71910;SDS011;59783;52.232;5.170;2023-04-28T04:52:34;30.02;;;24.67;;
71910;SDS011;59783;52.232;5.170;2023-04-28T04:54:59;29.33;;;25.33;;
71910;SDS011;59783;52.232;5.170;2023-04-28T04:57:24;27.70;;;24.77;;
71910;SDS011;59783;52.232;5.170;2023-04-28T04:59:50;27.90;;;23.92;;
71910;SDS011;59783;52.232;5.170;2023-04-28T05:02:15;28.33;;;25.03;;
71910;SDS011;59783;52.232;5.170;2023-04-28T05:04:40;28.33;;;24.40;;
71910;SDS011;59783;52.232;5.170;2023-04-28T05:07:05;26.97;;;23.73;;
71910;SDS011;59783;52.232;5.170;2023-04-28T05:09:31;32.80;;;29.50;;
71910;SDS011;59783;52.232;5.170;2023-04-28T05:11:57;26.65;;;23.80;;
71910;SDS011;59783;52.232;5.170;2023-04-28T05:14:22;24.90;;;22.30;;
71910;SDS011;59783;52.232;5.170;2023-04-28T05:16:47;29.63;;;24.73;;
71910;SDS011;59783;52.232;5.170;2023-04-28T05:19:12;29.90;;;24.42;;
71910;SDS011;59783;52.232;5.170;2023-04-28T05:21:38;26.50;;;23.47;;
71910;SDS011;59783;52.232;5.170;2023-04-28T05:24:03;27.70;;;24.17;;
71910;SDS011;59783;52.232;5.170;2023-04-28T05:26:28;29.33;;;24.42;;
71910;SDS011;59783;52.232;5.170;2023-04-28T05:28:53;27.38;;;24.48;;
71910;SDS011;59783;52.232;5.170;2023-04-28T05:31:18;26.37;;;23.57;;
71910;SDS011;59783;52.232;5.170;2023-04-28T05:33:44;29.37;;;26.03;;
71910;SDS011;59783;52.232;5.170;2023-04-28T05:36:09;27.07;;;23.93;;
71910;SDS011;59783;52.232;5.170;2023-04-28T05:38:34;38.13;;;24.40;;
71910;SDS011;59783;52.232;5.170;2023-04-28T05:41:00;27.07;;;24.03;;
71910;SDS011;59783;52.232;5.170;2023-04-28T05:43:25;29.75;;;23.98;;
71910;SDS011;59783;52.232;5.170;2023-04-28T05:45:50;29.23;;;25.57;;
71910;SDS011;59783;52.232;5.170;2023-04-28T05:48:16;29.55;;;24.52;;
71910;SDS011;59783;52.232;5.170;2023-04-28T05:50:41;30.67;;;26.70;;
71910;SDS011;59783;52.232;5.170;2023-04-28T05:53:06;29.30;;;25.65;;
71910;SDS011;59783;52.232;5.170;2023-04-28T05:55:31;32.53;;;25.97;;
71910;SDS011;59783;52.232;5.170;2023-04-28T05:57:58;32.70;;;29.25;;
71910;SDS011;59783;52.232;5.170;2023-04-28T06:00:23;30.77;;;26.10;;
71910;SDS011;59783;52.232;5.170;2023-04-28T06:02:49;32.63;;;26.08;;
71910;SDS011;59783;52.232;5.170;2023-04-28T06:05:14;31.87;;;24.70;;
71910;SDS011;59783;52.232;5.170;2023-04-28T06:07:39;31.60;;;26.87;;
71910;SDS011;59783;52.232;5.170;2023-04-28T06:10:04;31.17;;;27.70;;
71910;SDS011;59783;52.232;5.170;2023-04-28T06:12:30;31.27;;;26.80;;
71910;SDS011;59783;52.232;5.170;2023-04-28T06:14:55;30.43;;;24.63;;
71910;SDS011;59783;52.232;5.170;2023-04-28T06:17:20;31.23;;;27.83;;
71910;SDS011;59783;52.232;5.170;2023-04-28T06:19:45;31.43;;;26.63;;
71910;SDS011;59783;52.232;5.170;2023-04-28T06:22:11;31.63;;;28.17;;
71910;SDS011;59783;52.232;5.170;2023-04-28T06:24:36;33.65;;;28.00;;
71910;SDS011;59783;52.232;5.170;2023-04-28T06:27:01;32.83;;;27.00;;
71910;SDS011;59783;52.232;5.170;2023-04-28T06:29:26;35.23;;;27.67;;
71910;SDS011;59783;52.232;5.170;2023-04-28T06:31:52;31.25;;;27.13;;
71910;SDS011;59783;52.232;5.170;2023-04-28T06:34:21;37.90;;;33.97;;
71910;SDS011;59783;52.232;5.170;2023-04-28T06:36:46;31.63;;;27.98;;
71910;SDS011;59783;52.232;5.170;2023-04-28T06:39:11;33.80;;;27.50;;
71910;SDS011;59783;52.232;5.170;2023-04-28T06:41:37;31.73;;;25.17;;
71910;SDS011;59783;52.232;5.170;2023-04-28T06:44:02;32.72;;;27.00;;
71910;SDS011;59783;52.232;5.170;2023-04-28T06:46:27;35.30;;;28.10;;
71910;SDS011;59783;52.232;5.170;2023-04-28T06:48:53;35.30;;;27.75;;
71910;SDS011;59783;52.232;5.170;2023-04-28T06:51:18;31.37;;;27.10;;
71910;SDS011;59783;52.232;5.170;2023-04-28T06:53:43;31.10;;;25.93;;
71910;SDS011;59783;52.232;5.170;2023-04-28T06:56:08;33.43;;;27.93;;
71910;SDS011;59783;52.232;5.170;2023-04-28T06:58:33;31.30;;;26.87;;
71910;SDS011;59783;52.232;5.170;2023-04-28T07:00:59;33.70;;;28.05;;
71910;SDS011;59783;52.232;5.170;2023-04-28T07:03:25;32.87;;;27.97;;
71910;SDS011;59783;52.232;5.170;2023-04-28T07:05:50;35.75;;;28.17;;
71910;SDS011;59783;52.232;5.170;2023-04-28T07:08:15;32.57;;;28.93;;
71910;SDS011;59783;52.232;5.170;2023-04-28T07:10:41;33.78;;;26.15;;
71910;SDS011;59783;52.232;5.170;2023-04-28T07:13:06;35.28;;;28.48;;
71910;SDS011;59783;52.232;5.170;2023-04-28T07:15:32;35.65;;;30.48;;
71910;SDS011;59783;52.232;5.170;2023-04-28T07:17:57;31.33;;;25.83;;
71910;SDS011;59783;52.232;5.170;2023-04-28T07:20:22;31.83;;;28.37;;
71910;SDS011;59783;52.232;5.170;2023-04-28T07:22:47;35.30;;;28.87;;
71910;SDS011;59783;52.232;5.170;2023-04-28T07:25:12;35.50;;;29.85;;
71910;SDS011;59783;52.232;5.170;2023-04-28T07:27:37;34.03;;;29.13;;
71910;SDS011;59783;52.232;5.170;2023-04-28T07:30:03;36.13;;;29.53;;
71910;SDS011;59783;52.232;5.170;2023-04-28T07:32:28;36.65;;;27.92;;
71910;SDS011;59783;52.232;5.170;2023-04-28T07:34:53;43.97;;;33.73;;
71910;SDS011;59783;52.232;5.170;2023-04-28T07:37:18;37.30;;;29.73;;
71910;SDS011;59783;52.232;5.170;2023-04-28T07:39:44;36.63;;;28.20;;
71910;SDS011;59783;52.232;5.170;2023-04-28T07:42:09;37.43;;;28.70;;
71910;SDS011;59783;52.232;5.170;2023-04-28T07:44:34;38.37;;;28.87;;
71910;SDS011;59783;52.232;5.170;2023-04-28T07:46:59;37.25;;;31.48;;
71910;SDS011;59783;52.232;5.170;2023-04-28T07:49:26;37.50;;;28.65;;
71910;SDS011;59783;52.232;5.170;2023-04-28T07:51:51;35.22;;;27.88;;
71910;SDS011;59783;52.232;5.170;2023-04-28T07:54:18;39.88;;;29.00;;
71910;SDS011;59783;52.232;5.170;2023-04-28T07:56:44;36.20;;;28.23;;
71910;SDS011;59783;52.232;5.170;2023-04-28T07:59:09;37.03;;;29.73;;
71910;SDS011;59783;52.232;5.170;2023-04-28T08:01:34;39.42;;;34.97;;
71910;SDS011;59783;52.232;5.170;2023-04-28T08:03:59;37.38;;;29.45;;
71910;SDS011;59783;52.232;5.170;2023-04-28T08:06:25;37.47;;;31.88;;
71910;SDS011;59783;52.232;5.170;2023-04-28T08:08:50;37.33;;;29.70;;
71910;SDS011;59783;52.232;5.170;2023-04-28T08:11:15;40.63;;;30.00;;
71910;SDS011;59783;52.232;5.170;2023-04-28T08:13:40;38.67;;;29.93;;
71910;SDS011;59783;52.232;5.170;2023-04-28T08:16:05;36.83;;;31.53;;
71910;SDS011;59783;52.232;5.170;2023-04-28T08:18:31;35.97;;;28.67;;
71910;SDS011;59783;52.232;5.170;2023-04-28T08:20:56;37.93;;;29.30;;
71910;SDS011;59783;52.232;5.170;2023-04-28T08:23:21;39.00;;;30.87;;
71910;SDS011;59783;52.232;5.170;2023-04-28T08:25:47;41.47;;;32.07;;
71910;SDS011;59783;52.232;5.170;2023-04-28T08:28:13;41.30;;;31.13;;
71910;SDS011;59783;52.232;5.170;2023-04-28T08:30:38;36.87;;;29.63;;
71910;SDS011;59783;52.232;5.170;2023-04-28T08:33:04;40.40;;;31.17;;
71910;SDS011;59783;52.232;5.170;2023-04-28T08:35:29;38.03;;;32.73;;
71910;SDS011;59783;52.232;5.170;2023-04-28T08:37:54;37.53;;;30.10;;
71910;SDS011;59783;52.232;5.170;2023-04-28T08:40:19;37.63;;;30.95;;
71910;SDS011;59783;52.232;5.170;2023-04-28T08:42:45;38.65;;;32.95;;
71910;SDS011;59783;52.232;5.170;2023-04-28T08:45:14;38.75;;;30.35;;
71910;SDS011;59783;52.232;5.170;2023-04-28T08:47:39;39.55;;;31.42;;
71910;SDS011;59783;52.232;5.170;2023-04-28T08:50:09;39.40;;;31.60;;
71910;SDS011;59783;52.232;5.170;2023-04-28T08:52:36;40.45;;;29.50;;
71910;SDS011;59783;52.232;5.170;2023-04-28T08:55:05;42.42;;;30.75;;
71910;SDS011;59783;52.232;5.170;2023-04-28T08:57:37;40.10;;;30.80;;
71910;SDS011;59783;52.232;5.170;2023-04-28T09:00:03;40.83;;;33.17;;
71910;SDS011;59783;52.232;5.170;2023-04-28T09:02:28;44.70;;;32.72;;
71910;SDS011;59783;52.232;5.170;2023-04-28T09:04:53;47.50;;;32.13;;
71910;SDS011;59783;52.232;5.170;2023-04-28T09:07:18;40.07;;;31.77;;
71910;SDS011;59783;52.232;5.170;2023-04-28T09:09:44;42.97;;;30.90;;
71910;SDS011;59783;52.232;5.170;2023-04-28T09:12:09;40.45;;;32.35;;
71910;SDS011;59783;52.232;5.170;2023-04-28T09:14:35;40.17;;;32.80;;
71910;SDS011;59783;52.232;5.170;2023-04-28T09:17:01;40.22;;;32.95;;
71910;SDS011;59783;52.232;5.170;2023-04-28T09:19:33;41.28;;;33.00;;
71910;SDS011;59783;52.232;5.170;2023-04-28T09:22:00;44.50;;;33.92;;
71910;SDS011;59783;52.232;5.170;2023-04-28T09:24:26;42.43;;;35.10;;
71910;SDS011;59783;52.232;5.170;2023-04-28T09:26:51;46.75;;;36.17;;
71910;SDS011;59783;52.232;5.170;2023-04-28T09:29:16;44.57;;;34.07;;
71910;SDS011;59783;52.232;5.170;2023-04-28T09:31:41;45.78;;;35.75;;
71910;SDS011;59783;52.232;5.170;2023-04-28T09:34:07;45.92;;;35.30;;
71910;SDS011;59783;52.232;5.170;2023-04-28T09:36:33;43.15;;;33.78;;
71910;SDS011;59783;52.232;5.170;2023-04-28T09:38:58;47.25;;;33.67;;
71910;SDS011;59783;52.232;5.170;2023-04-28T09:41:34;44.33;;;34.00;;
71910;SDS011;59783;52.232;5.170;2023-04-28T09:44:08;46.10;;;33.92;;
71910;SDS011;59783;52.232;5.170;2023-04-28T09:46:33;44.00;;;33.22;;
71910;SDS011;59783;52.232;5.170;2023-04-28T09:48:59;49.90;;;39.35;;
71910;SDS011;59783;52.232;5.170;2023-04-28T09:51:25;44.72;;;34.88;;
71910;SDS011;59783;52.232;5.170;2023-04-28T09:53:50;42.53;;;33.63;;
71910;SDS011;59783;52.232;5.170;2023-04-28T09:56:16;46.85;;;35.28;;
71910;SDS011;59783;52.232;5.170;2023-04-28T09:58:45;46.13;;;35.63;;
71910;SDS011;59783;52.232;5.170;2023-04-28T10:01:12;45.75;;;35.95;;
71910;SDS011;59783;52.232;5.170;2023-04-28T10:03:37;46.72;;;35.83;;
71910;SDS011;59783;52.232;5.170;2023-04-28T10:06:03;47.08;;;35.55;;
71910;SDS011;59783;52.232;5.170;2023-04-28T10:08:29;43.38;;;37.05;;
71910;SDS011;59783;52.232;5.170;2023-04-28T10:10:54;45.17;;;36.30;;
71910;SDS011;59783;52.232;5.170;2023-04-28T10:13:19;44.50;;;39.33;;
71910;SDS011;59783;52.232;5.170;2023-04-28T10:15:45;44.60;;;34.20;;
71910;SDS011;59783;52.232;5.170;2023-04-28T10:18:11;45.65;;;34.60;;
71910;SDS011;59783;52.232;5.170;2023-04-28T10:20:37;42.03;;;34.33;;
71910;SDS011;59783;52.232;5.170;2023-04-28T10:25:47;42.70;;;33.92;;
71910;SDS011;59783;52.232;5.170;2023-04-28T10:28:13;42.90;;;33.67;;
71910;SDS011;59783;52.232;5.170;2023-04-28T10:30:38;39.30;;;32.40;;
71910;SDS011;59783;52.232;5.170;2023-04-28T10:35:44;45.95;;;34.90;;
71910;SDS011;59783;52.232;5.170;2023-04-28T10:38:11;43.70;;;34.10;;
71910;SDS011;59783;52.232;5.170;2023-04-28T10:43:03;41.70;;;33.83;;
71910;SDS011;59783;52.232;5.170;2023-04-28T10:48:12;43.80;;;33.35;;
71910;SDS011;59783;52.232;5.170;2023-04-28T10:50:37;43.30;;;33.23;;
71910;SDS011;59783;52.232;5.170;2023-04-28T10:53:20;49.17;;;36.35;;
71910;SDS011;59783;52.232;5.170;2023-04-28T10:55:45;47.83;;;35.63;;
71910;SDS011;59783;52.232;5.170;2023-04-28T10:58:29;46.85;;;33.63;;
71910;SDS011;59783;52.232;5.170;2023-04-28T11:00:54;50.70;;;34.85;;
71910;SDS011;59783;52.232;5.170;2023-04-28T11:06:20;47.72;;;32.92;;
71910;SDS011;59783;52.232;5.170;2023-04-28T11:08:49;47.95;;;34.95;;
71910;SDS011;59783;52.232;5.170;2023-04-28T11:11:15;47.10;;;33.13;;
71910;SDS011;59783;52.232;5.170;2023-04-28T11:13:41;43.25;;;33.20;;
71910;SDS011;59783;52.232;5.170;2023-04-28T11:16:07;46.78;;;33.45;;
71910;SDS011;59783;52.232;5.170;2023-04-28T11:19:05;48.03;;;33.10;;
71910;SDS011;59783;52.232;5.170;2023-04-28T11:21:24;43.40;;;32.60;;
71910;SDS011;59783;52.232;5.170;2023-04-28T11:23:49;46.05;;;33.28;;
71910;SDS011;59783;52.232;5.170;2023-04-28T11:26:15;49.60;;;37.53;;
71910;SDS011;59783;52.232;5.170;2023-04-28T11:28:53;46.60;;;33.22;;
71910;SDS011;59783;52.232;5.170;2023-04-28T11:31:19;47.95;;;32.78;;
71910;SDS011;59783;52.232;5.170;2023-04-28T11:33:48;42.13;;;30.90;;
71910;SDS011;59783;52.232;5.170;2023-04-28T11:36:30;41.45;;;29.77;;
71910;SDS011;59783;52.232;5.170;2023-04-28T11:38:59;41.80;;;30.60;;
71910;SDS011;59783;52.232;5.170;2023-04-28T11:41:24;40.88;;;30.20;;
71910;SDS011;59783;52.232;5.170;2023-04-28T11:43:50;39.58;;;28.77;;
71910;SDS011;59783;52.232;5.170;2023-04-28T11:46:19;39.70;;;28.65;;
71910;SDS011;59783;52.232;5.170;2023-04-28T11:48:44;38.38;;;30.75;;
71910;SDS011;59783;52.232;5.170;2023-04-28T11:51:25;35.95;;;28.80;;
71910;SDS011;59783;52.232;5.170;2023-04-28T11:53:51;37.03;;;29.23;;
71910;SDS011;59783;52.232;5.170;2023-04-28T11:56:16;34.20;;;29.67;;
71910;SDS011;59783;52.232;5.170;2023-04-28T11:58:42;33.78;;;28.77;;
71910;SDS011;59783;52.232;5.170;2023-04-28T12:01:11;36.20;;;30.33;;
71910;SDS011;59783;52.232;5.170;2023-04-28T12:03:46;35.50;;;29.02;;
71910;SDS011;59783;52.232;5.170;2023-04-28T12:06:15;35.78;;;29.65;;
71910;SDS011;59783;52.232;5.170;2023-04-28T12:08:41;37.08;;;29.98;;
71910;SDS011;59783;52.232;5.170;2023-04-28T12:11:09;39.43;;;31.50;;
71910;SDS011;59783;52.232;5.170;2023-04-28T12:13:35;39.67;;;32.75;;
71910;SDS011;59783;52.232;5.170;2023-04-28T12:16:01;39.13;;;30.30;;
71910;SDS011;59783;52.232;5.170;2023-04-28T12:18:27;36.28;;;31.02;;
71910;SDS011;59783;52.232;5.170;2023-04-28T12:20:52;38.77;;;34.57;;
71910;SDS011;59783;52.232;5.170;2023-04-28T12:23:27;40.25;;;31.05;;
71910;SDS011;59783;52.232;5.170;2023-04-28T12:25:52;38.05;;;30.80;;
71910;SDS011;59783;52.232;5.170;2023-04-28T12:28:17;36.40;;;29.63;;
71910;SDS011;59783;52.232;5.170;2023-04-28T12:30:43;34.03;;;29.37;;
71910;SDS011;59783;52.232;5.170;2023-04-28T12:33:24;36.67;;;30.13;;
71910;SDS011;59783;52.232;5.170;2023-04-28T12:35:49;34.30;;;27.75;;
71910;SDS011;59783;52.232;5.170;2023-04-28T12:38:14;32.57;;;26.67;;
71910;SDS011;59783;52.232;5.170;2023-04-28T12:40:40;29.95;;;25.80;;
71910;SDS011;59783;52.232;5.170;2023-04-28T12:43:06;29.83;;;24.97;;
71910;SDS011;59783;52.232;5.170;2023-04-28T12:45:31;29.17;;;25.97;;
71910;SDS011;59783;52.232;5.170;2023-04-28T12:47:56;27.92;;;25.00;;
71910;SDS011;59783;52.232;5.170;2023-04-28T12:50:21;32.65;;;29.55;;
71910;SDS011;59783;52.232;5.170;2023-04-28T12:52:47;25.57;;;22.40;;
71910;SDS011;59783;52.232;5.170;2023-04-28T12:55:12;27.53;;;24.80;;
71910;SDS011;59783;52.232;5.170;2023-04-28T12:57:37;25.90;;;23.10;;
71910;SDS011;59783;52.232;5.170;2023-04-28T13:00:02;25.52;;;22.83;;
71910;SDS011;59783;52.232;5.170;2023-04-28T13:02:28;23.35;;;20.95;;
71910;SDS011;59783;52.232;5.170;2023-04-28T13:04:53;24.77;;;22.37;;
71910;SDS011;59783;52.232;5.170;2023-04-28T13:07:18;23.63;;;21.23;;
71910;SDS011;59783;52.232;5.170;2023-04-28T13:09:43;24.27;;;21.95;;
71910;SDS011;59783;52.232;5.170;2023-04-28T13:12:09;23.27;;;21.08;;
71910;SDS011;59783;52.232;5.170;2023-04-28T13:14:35;23.83;;;21.52;;
71910;SDS011;59783;52.232;5.170;2023-04-28T13:17:00;22.80;;;20.50;;
71910;SDS011;59783;52.232;5.170;2023-04-28T13:19:27;25.33;;;22.92;;
71910;SDS011;59783;52.232;5.170;2023-04-28T13:21:53;24.50;;;22.10;;
71910;SDS011;59783;52.232;5.170;2023-04-28T13:24:18;24.87;;;22.47;;
71910;SDS011;59783;52.232;5.170;2023-04-28T13:26:44;25.73;;;23.43;;
71910;SDS011;59783;52.232;5.170;2023-04-28T13:29:09;25.25;;;22.85;;
71910;SDS011;59783;52.232;5.170;2023-04-28T13:31:35;25.08;;;22.73;;
71910;SDS011;59783;52.232;5.170;2023-04-28T13:34:00;25.52;;;23.13;;
71910;SDS011;59783;52.232;5.170;2023-04-28T13:36:26;26.15;;;23.73;;
71910;SDS011;59783;52.232;5.170;2023-04-28T13:38:53;25.15;;;22.75;;
71910;SDS011;59783;52.232;5.170;2023-04-28T13:41:18;24.65;;;22.30;;
71910;SDS011;59783;52.232;5.170;2023-04-28T13:43:43;28.70;;;26.10;;
71910;SDS011;59783;52.232;5.170;2023-04-28T13:46:09;26.97;;;24.47;;
71910;SDS011;59783;52.232;5.170;2023-04-28T13:48:34;25.38;;;22.85;;
71910;SDS011;59783;52.232;5.170;2023-04-28T13:51:00;26.10;;;23.25;;
71910;SDS011;59783;52.232;5.170;2023-04-28T13:53:25;27.88;;;23.73;;
71910;SDS011;59783;52.232;5.170;2023-04-28T13:55:50;27.88;;;24.67;;
71910;SDS011;59783;52.232;5.170;2023-04-28T13:58:17;29.23;;;23.42;;
71910;SDS011;59783;52.232;5.170;2023-04-28T14:00:42;27.83;;;23.13;;
71910;SDS011;59783;52.232;5.170;2023-04-28T14:03:08;36.50;;;25.57;;
71910;SDS011;59783;52.232;5.170;2023-04-28T14:05:33;39.13;;;26.48;;
71910;SDS011;59783;52.232;5.170;2023-04-28T14:07:59;41.17;;;27.48;;
71910;SDS011;59783;52.232;5.170;2023-04-28T14:12:52;44.60;;;30.17;;
71910;SDS011;59783;52.232;5.170;2023-04-28T14:15:17;40.67;;;28.05;;
71910;SDS011;59783;52.232;5.170;2023-04-28T14:17:43;45.30;;;29.33;;
71910;SDS011;59783;52.232;5.170;2023-04-28T14:20:08;50.57;;;30.27;;
71910;SDS011;59783;52.232;5.170;2023-04-28T14:22:35;50.30;;;28.05;;
71910;SDS011;59783;52.232;5.170;2023-04-28T14:25:00;48.95;;;31.75;;
71910;SDS011;59783;52.232;5.170;2023-04-28T14:27:26;47.65;;;29.67;;
71910;SDS011;59783;52.232;5.170;2023-04-28T14:29:52;46.15;;;29.05;;